KMVL/MVL METAR and TAF weather

Enter ICAO airport designator
Station Type Date Time Source
KMVL METAR 2022/11/27 06:54 UTC NOAA

KMVL 270654Z AUTO 00000KT 10SM CLR M03/M05 A2979 RMK AO2 SLP097 T10281050


Station Type Date Time Source
KMVL Decoded METAR 2022/11/27 06:54 UTC NOAA

MORRISVILLE STOWE STATE AIRPORT , VT, United States (KMVL) 44-32N 72-37W 223M
Nov 27, 2022 - 01:54 AM EST / 2022.11.27 0654 UTC
Wind: Calm:0
Visibility: 10 mile(s):0
Sky conditions: clear
Temperature: 27.0 F (-2.8 C)
Dew Point: 23.0 F (-5.0 C)
Relative Humidity: 84%
Pressure (altimeter): 29.79 in. Hg (1008 hPa)
ob: KMVL 270654Z AUTO 00000KT 10SM CLR M03/M05 A2979 RMK AO2 SLP097 T10281050
cycle: 7

Station Type Date Time Source
KMVL TAF UTC NOAA

Error!

Example: see airport list